Time;durP1;ratioP1;P1;durP2;ratioP2;P2;SDS_P1;SDS_P2;PMS_P1;PMS_P2;Temp;Humidity;BMP_temperature;BMP_pressure;BME280_temperature;BME280_humidity;BME280_pressure;Samples;Min_cycle;Max_cycle;Signal;HPM_P1;HPM_P2
2023/07/22 00:01:11;;;;;;;9.93;9.63;;;14.60;99.90;;;;;;6194725;23;20207;-79
2023/07/22 00:03:38;;;;;;;9.82;9.52;;;14.50;99.90;;;;;;6194780;23;20200;-79
2023/07/22 00:06:08;;;;;;;9.95;9.65;;;14.50;99.90;;;;;;6194774;23;20195;-79
2023/07/22 00:08:36;;;;;;;9.70;9.40;;;14.40;99.90;;;;;;6195071;23;20198;-78
2023/07/22 00:11:04;;;;;;;9.98;9.68;;;14.40;99.90;;;;;;6194753;23;20195;-78
2023/07/22 00:13:32;;;;;;;9.90;9.60;;;14.40;99.90;;;;;;6194718;23;20204;-79
2023/07/22 00:16:00;;;;;;;10.10;9.80;;;14.40;99.90;;;;;;6194319;22;20199;-79
2023/07/22 00:18:29;;;;;;;10.00;9.70;;;14.50;99.90;;;;;;6194486;23;20267;-79
2023/07/22 00:20:56;;;;;;;9.55;9.25;;;14.50;99.90;;;;;;6194585;23;20262;-79
2023/07/22 00:23:24;;;;;;;9.80;9.50;;;14.50;99.90;;;;;;6197579;23;20238;-78
2023/07/22 00:25:53;;;;;;;9.95;9.65;;;14.40;99.90;;;;;;6200228;23;20203;-79
2023/07/22 00:28:19;;;;;;;9.70;9.40;;;14.50;99.90;;;;;;6193992;23;20211;-79
2023/07/22 00:30:48;;;;;;;9.80;9.50;;;14.50;99.90;;;;;;6196122;23;20246;-79
2023/07/22 00:33:16;;;;;;;9.77;9.48;;;14.50;99.90;;;;;;6197589;23;20204;-79
2023/07/22 00:35:43;;;;;;;9.70;9.40;;;14.50;99.90;;;;;;6201301;23;20215;-78
2023/07/22 00:38:10;;;;;;;9.77;9.48;;;14.50;99.90;;;;;;6212880;23;20331;-79
2023/07/22 00:40:39;;;;;;;9.82;9.52;;;14.50;99.90;;;;;;6216935;23;20215;-78
2023/07/22 00:43:07;;;;;;;9.80;9.50;;;14.50;99.90;;;;;;6217352;23;20199;-78
2023/07/22 00:45:34;;;;;;;9.53;9.23;;;14.50;99.90;;;;;;6217013;23;20199;-79
2023/07/22 00:48:01;;;;;;;9.70;9.40;;;14.40;99.90;;;;;;6215676;23;21009;-78
2023/07/22 00:50:28;;;;;;;9.82;9.52;;;14.40;99.90;;;;;;6211075;23;20255;-78
2023/07/22 00:52:55;;;;;;;9.80;9.50;;;14.40;99.90;;;;;;6216073;23;20188;-78
2023/07/22 00:55:22;;;;;;;10.00;9.70;;;14.40;99.90;;;;;;6217457;23;20199;-78
2023/07/22 00:57:50;;;;;;;9.98;9.68;;;14.30;99.90;;;;;;6216343;23;20219;-79
2023/07/22 01:00:17;;;;;;;9.98;9.68;;;14.30;99.90;;;;;;6216700;23;20203;-78
2023/07/22 01:02:45;;;;;;;9.77;9.48;;;14.30;99.90;;;;;;6217341;23;20235;-79
2023/07/22 01:05:13;;;;;;;9.85;9.55;;;14.20;99.90;;;;;;6217778;23;20255;-79
2023/07/22 01:07:41;;;;;;;9.60;9.30;;;14.10;99.90;;;;;;6216705;23;20199;-78
2023/07/22 01:10:09;;;;;;;9.83;9.53;;;14.10;99.90;;;;;;6216679;23;20188;-79
2023/07/22 01:12:36;;;;;;;9.80;9.50;;;14.00;99.90;;;;;;6200563;23;20282;-79
2023/07/22 01:15:07;;;;;;;9.95;9.65;;;14.00;99.90;;;;;;6195082;23;20203;-78
2023/07/22 01:17:36;;;;;;;9.93;9.63;;;13.90;99.90;;;;;;6206704;23;20211;-79
2023/07/22 01:20:04;;;;;;;9.90;9.60;;;13.90;99.90;;;;;;6194122;23;20200;-79
2023/07/22 01:22:32;;;;;;;9.70;9.40;;;13.90;99.90;;;;;;6193871;23;20209;-79
2023/07/22 01:25:01;;;;;;;9.97;9.67;;;13.90;99.90;;;;;;6194366;23;20212;-79
2023/07/22 01:27:28;;;;;;;9.80;9.50;;;13.90;99.90;;;;;;6194461;23;20203;-79
2023/07/22 01:29:56;;;;;;;10.00;9.70;;;13.90;99.90;;;;;;6194541;23;20219;-79
2023/07/22 01:32:23;;;;;;;10.02;9.73;;;13.90;99.90;;;;;;6194399;23;20191;-79
2023/07/22 01:34:50;;;;;;;9.80;9.50;;;13.90;99.90;;;;;;6194503;23;20210;-80
2023/07/22 01:37:17;;;;;;;9.90;9.60;;;13.90;99.90;;;;;;6194512;23;20258;-79
2023/07/22 01:39:44;;;;;;;10.00;9.70;;;13.80;99.90;;;;;;6198838;23;20200;-79
2023/07/22 01:42:13;;;;;;;10.00;9.70;;;13.80;99.90;;;;;;6198417;23;20195;-79
2023/07/22 01:44:41;;;;;;;9.90;9.60;;;13.80;99.90;;;;;;6195328;23;20234;-79
2023/07/22 01:47:08;;;;;;;9.60;9.30;;;13.80;99.90;;;;;;6194937;23;20220;-79
2023/07/22 01:49:35;;;;;;;9.53;9.23;;;13.80;99.90;;;;;;6203533;23;20287;-79
2023/07/22 01:52:02;;;;;;;9.90;9.60;;;13.70;99.90;;;;;;6197589;23;20207;-79
2023/07/22 01:54:29;;;;;;;9.98;9.68;;;13.70;99.90;;;;;;6194128;23;20245;-79
2023/07/22 01:56:56;;;;;;;9.60;9.30;;;13.80;99.90;;;;;;6194414;23;20238;-79
2023/07/22 01:59:24;;;;;;;9.60;9.30;;;13.80;99.90;;;;;;6194451;23;20212;-78
2023/07/22 02:01:51;;;;;;;9.80;9.50;;;13.80;99.90;;;;;;6194732;23;20203;-79
2023/07/22 02:04:18;;;;;;;9.73;9.43;;;13.90;99.90;;;;;;6194499;23;20191;-79
2023/07/22 02:06:45;;;;;;;9.70;9.40;;;13.90;99.90;;;;;;6194162;23;20246;-78
2023/07/22 02:09:13;;;;;;;9.90;9.60;;;13.80;99.90;;;;;;6202577;23;20272;-79
2023/07/22 02:11:41;;;;;;;9.70;9.40;;;13.90;99.90;;;;;;6198286;23;20192;-79
2023/07/22 02:14:07;;;;;;;9.60;9.30;;;13.90;99.90;;;;;;6197812;23;20246;-78
2023/07/22 02:16:37;;;;;;;9.80;9.50;;;13.80;99.90;;;;;;6194913;23;20223;-79
2023/07/22 02:19:04;;;;;;;10.10;9.80;;;13.70;99.90;;;;;;6193998;23;20211;-79
2023/07/22 02:21:32;;;;;;;9.87;9.57;;;13.70;99.90;;;;;;6193401;23;20199;-79
2023/07/22 02:23:59;;;;;;;9.70;9.40;;;13.70;99.90;;;;;;6193699;23;20230;-79
2023/07/22 02:26:26;;;;;;;9.57;9.27;;;13.60;99.90;;;;;;6193408;23;20195;-79
2023/07/22 02:28:54;;;;;;;9.57;9.27;;;13.60;99.90;;;;;;6193796;23;20211;-79
2023/07/22 02:31:22;;;;;;;10.00;9.70;;;13.50;99.90;;;;;;6193604;23;20216;-79
2023/07/22 02:33:50;;;;;;;9.83;9.53;;;13.50;99.90;;;;;;6193967;23;20191;-79
2023/07/22 02:36:18;;;;;;;9.60;9.30;;;13.50;99.90;;;;;;6193624;23;20285;-79
2023/07/22 02:38:45;;;;;;;9.90;9.60;;;13.60;99.90;;;;;;6193674;23;20234;-79
2023/07/22 02:41:12;;;;;;;9.77;9.47;;;13.60;99.90;;;;;;6193709;23;20213;-79
2023/07/22 02:43:38;;;;;;;9.70;9.40;;;13.60;99.90;;;;;;6194089;23;20270;-79
2023/07/22 02:46:07;;;;;;;9.70;9.40;;;13.60;99.90;;;;;;6193570;23;20203;-79
2023/07/22 02:48:34;;;;;;;9.70;9.40;;;13.60;99.90;;;;;;6201455;23;20239;-78
2023/07/22 02:51:08;;;;;;;9.90;9.60;;;13.60;99.90;;;;;;6196854;23;20222;-79
2023/07/22 02:53:36;;;;;;;9.60;9.30;;;13.60;99.90;;;;;;6194987;23;20195;-79
2023/07/22 02:56:04;;;;;;;9.67;9.37;;;13.60;99.90;;;;;;6195265;23;20208;-78
2023/07/22 02:58:46;;;;;;;;;;;;;;;;;;;;;
2023/07/22 03:01:54;;;;;;;9.60;9.30;;;13.70;99.90;;;;;;6192516;23;20230;-88
2023/07/22 03:04:52;;;;;;;9.60;9.30;;;13.70;99.90;;;;;;6142492;23;20200;-88
2023/07/22 03:11:24;;;;;;;9.70;9.40;;;13.60;99.90;;;;;;6194640;23;20207;-88
2023/07/22 03:14:34;;;;;;;;;;;;;;;;;;;;;
2023/07/22 03:20:41;;;;;;;10.20;9.90;;;13.60;99.90;;;;;;6194204;23;20214;-89
2023/07/22 03:27:06;;;;;;;10.10;9.80;;;13.50;99.90;;;;;;6195251;23;20196;-88
2023/07/22 03:30:17;;;;;;;;;;;;;;;;;;;;;
2023/07/22 03:33:30;;;;;;;;;;;;;;;;;;;;;
2023/07/22 03:36:28;;;;;;;;;;;;;;;;;;;;;
2023/07/22 03:39:40;;;;;;;10.20;9.90;;;13.40;99.90;;;;;;6189395;22;20315;-88
2023/07/22 03:42:47;;;;;;;;;;;;;;;;;;;;;
2023/07/22 03:45:48;;;;;;;10.10;9.80;;;13.30;99.90;;;;;;6205747;23;20219;-88
2023/07/22 03:48:54;;;;;;;;;;;;;;;;;;;;;
2023/07/22 03:51:45;;;;;;;10.10;9.80;;;13.20;99.90;;;;;;6208979;23;20188;-88
2023/07/22 03:54:40;;;;;;;10.03;9.73;;;13.20;99.90;;;;;;6197081;23;20200;-88
2023/07/22 04:00:44;;;;;;;10.10;9.80;;;13.30;99.90;;;;;;6197733;23;20333;-88
2023/07/22 04:03:59;;;;;;;9.80;9.50;;;13.20;99.90;;;;;;6194794;23;20221;-89
2023/07/22 04:07:26;;;;;;;10.00;9.70;;;13.20;99.90;;;;;;6195901;23;20198;-89
2023/07/22 04:10:47;;;;;;;9.90;9.60;;;13.30;99.90;;;;;;6195724;22;20199;-88
2023/07/22 04:14:06;;;;;;;;;;;;;;;;;;;;;
2023/07/22 04:47:38;;;;;;;10.30;10.00;;;14.50;99.90;;;;;;6313081;22;21149;-86
2023/07/22 04:53:27;;;;;;;10.40;10.10;;;14.70;99.90;;;;;;6221017;23;20214;-82
2023/07/22 04:55:55;;;;;;;10.15;9.85;;;14.80;99.90;;;;;;6282750;22;20189;-82
2023/07/22 04:58:24;;;;;;;10.18;9.88;;;14.90;99.90;;;;;;6297281;22;20209;-82
2023/07/22 05:00:51;;;;;;;10.10;9.80;;;14.80;99.90;;;;;;6298969;22;20209;-82
2023/07/22 05:03:20;;;;;;;10.20;9.90;;;14.80;99.90;;;;;;6297569;22;20205;-80
2023/07/22 05:05:47;;;;;;;10.30;10.00;;;14.70;99.90;;;;;;6297994;22;20204;-81
2023/07/22 05:44:04;;;;;;;10.30;10.00;;;15.00;99.90;;;;;;6340822;22;20199;-87
2023/07/22 05:47:24;;;;;;;10.10;9.80;;;15.20;99.90;;;;;;6350230;22;20188;-88
2023/07/22 06:01:25;;;;;;;10.20;9.90;;;15.60;99.90;;;;;;6219374;22;20207;-87
2023/07/22 06:04:30;;;;;;;10.43;10.13;;;15.70;99.90;;;;;;6317296;22;20204;-88
2023/07/22 08:29:39;;;;;;;10.75;10.45;;;18.90;99.90;;;;;;6303405;22;20209;-87
2023/07/22 08:58:27;;;;;;;10.85;10.55;;;20.40;99.90;;;;;;6026243;22;20311;-79
2023/07/22 09:00:55;;;;;;;11.05;10.75;;;20.80;99.90;;;;;;6353978;22;20199;-79
2023/07/22 09:03:22;;;;;;;10.88;10.57;;;21.00;99.90;;;;;;6357301;22;20200;-79
2023/07/22 09:05:49;;;;;;;10.95;10.65;;;21.20;99.90;;;;;;6356674;22;20255;-79
2023/07/22 09:08:17;;;;;;;11.15;10.85;;;21.50;99.90;;;;;;6359335;22;20213;-79
2023/07/22 09:10:44;;;;;;;11.07;10.77;;;21.70;99.90;;;;;;6367986;22;20176;-83
2023/07/22 09:13:13;;;;;;;11.10;10.80;;;21.60;99.90;;;;;;6368564;22;20202;-82
2023/07/22 09:15:42;;;;;;;11.10;10.80;;;21.80;99.90;;;;;;6371729;22;20199;-81
2023/07/22 09:18:09;;;;;;;11.40;11.10;;;22.00;99.90;;;;;;6363231;22;20196;-81
2023/07/22 09:20:36;;;;;;;11.20;10.90;;;22.20;99.90;;;;;;6353882;22;20242;-81
2023/07/22 09:23:03;;;;;;;11.32;11.02;;;22.50;99.90;;;;;;6354141;22;20204;-80
2023/07/22 09:25:30;;;;;;;11.40;11.10;;;22.60;99.90;;;;;;6355070;22;20191;-81
2023/07/22 09:28:01;;;;;;;11.20;10.90;;;22.60;99.90;;;;;;6355102;22;20216;-81
2023/07/22 09:30:30;;;;;;;10.98;10.68;;;22.60;99.90;;;;;;6354426;22;20188;-81
2023/07/22 09:33:01;;;;;;;11.13;10.82;;;22.70;99.90;;;;;;6353446;22;20251;-80
2023/07/22 09:35:30;;;;;;;10.90;10.60;;;22.60;99.90;;;;;;6353908;22;20215;-80
2023/07/22 09:37:58;;;;;;;10.80;10.50;;;22.80;99.90;;;;;;6353574;22;20215;-81
2023/07/22 09:40:27;;;;;;;10.68;10.38;;;22.90;99.90;;;;;;6353100;22;20200;-80
2023/07/22 09:42:57;;;;;;;11.00;10.70;;;23.20;99.90;;;;;;6353920;22;20203;-82
2023/07/22 09:45:29;;;;;;;11.18;10.88;;;23.60;99.90;;;;;;6355457;22;20192;-82
2023/07/22 09:47:59;;;;;;;11.13;10.82;;;24.00;99.90;;;;;;6362867;22;20211;-83
2023/07/22 09:50:28;;;;;;;11.13;10.82;;;24.30;99.90;;;;;;6371375;22;20197;-82
2023/07/22 09:52:57;;;;;;;10.60;10.30;;;24.50;99.90;;;;;;6368460;22;20192;-82
2023/07/22 09:55:28;;;;;;;11.00;10.70;;;24.30;99.90;;;;;;6371499;22;20188;-83
2023/07/22 09:57:57;;;;;;;11.02;10.73;;;24.10;99.90;;;;;;6361163;22;20189;-82
2023/07/22 10:00:26;;;;;;;11.23;10.93;;;24.30;99.90;;;;;;6359516;22;20193;-83
2023/07/22 10:02:59;;;;;;;11.23;10.93;;;24.60;99.90;;;;;;6361183;22;20203;-82
2023/07/22 10:05:29;;;;;;;11.48;11.18;;;24.90;99.90;;;;;;6356795;22;20192;-83
2023/07/22 10:07:58;;;;;;;11.05;10.75;;;25.20;99.90;;;;;;6356491;22;20203;-83
2023/07/22 10:10:32;;;;;;;11.27;10.98;;;25.70;99.90;;;;;;6355541;22;20203;-83
2023/07/22 10:12:59;;;;;;;11.30;11.00;;;25.60;99.90;;;;;;6355228;22;20243;-81
2023/07/22 10:15:29;;;;;;;10.73;10.43;;;25.10;99.90;;;;;;6321595;22;20204;-83
2023/07/22 10:17:59;;;;;;;10.80;10.50;;;24.90;99.90;;;;;;6324820;22;20181;-83
2023/07/22 10:20:27;;;;;;;10.73;10.43;;;24.80;99.90;;;;;;6324850;22;20246;-83
2023/07/22 10:22:54;;;;;;;10.60;10.30;;;24.60;99.90;;;;;;6327644;22;20244;-83
2023/07/22 10:25:23;;;;;;;10.65;10.35;;;24.40;99.90;;;;;;6323069;22;20193;-80
2023/07/22 10:27:53;;;;;;;10.70;10.40;;;24.30;99.90;;;;;;6322008;22;20219;-81
2023/07/22 10:30:21;;;;;;;10.65;10.35;;;24.20;99.90;;;;;;6322041;22;20197;-81
2023/07/22 10:32:50;;;;;;;10.38;10.07;;;23.90;99.90;;;;;;6320811;22;20209;-81
2023/07/22 10:35:36;;;;;;;10.40;10.10;;;23.90;99.90;;;;;;6321413;22;20220;-82
2023/07/22 10:38:09;;;;;;;10.45;10.15;;;23.80;99.90;;;;;;6321029;22;20220;-81
2023/07/22 10:40:47;;;;;;;10.52;10.23;;;23.40;99.90;;;;;;6320073;22;20270;-81
2023/07/22 10:43:17;;;;;;;10.50;10.20;;;23.30;99.90;;;;;;6321629;22;20197;-79
2023/07/22 10:45:51;;;;;;;10.43;10.13;;;23.30;99.90;;;;;;6322292;22;20207;-83
2023/07/22 10:48:22;;;;;;;10.45;10.15;;;23.30;99.90;;;;;;6322957;22;20204;-80
2023/07/22 10:50:53;;;;;;;10.48;10.18;;;23.30;99.90;;;;;;6324039;22;20223;-82
2023/07/22 10:53:32;;;;;;;10.50;10.20;;;23.40;99.90;;;;;;6322904;22;20204;-79
2023/07/22 10:56:14;;;;;;;10.35;10.05;;;23.30;99.90;;;;;;6336529;22;20177;-80
2023/07/22 10:58:59;;;;;;;10.70;10.40;;;23.50;99.90;;;;;;6320873;22;20201;-80
2023/07/22 11:01:37;;;;;;;10.88;10.57;;;23.50;99.90;;;;;;6320646;22;20239;-81
2023/07/22 11:04:12;;;;;;;10.77;10.48;;;23.80;99.90;;;;;;6322965;22;20193;-80
2023/07/22 11:06:54;;;;;;;10.75;10.45;;;24.00;99.90;;;;;;6325382;22;20193;-79
2023/07/22 11:09:40;;;;;;;10.82;10.52;;;24.00;99.90;;;;;;6319204;22;20201;-82
2023/07/22 11:12:10;;;;;;;10.82;10.52;;;24.20;99.90;;;;;;6322407;22;20204;-81
2023/07/22 11:14:41;;;;;;;10.57;10.27;;;24.00;99.90;;;;;;6320814;22;20247;-76
2023/07/22 11:17:09;;;;;;;10.80;10.50;;;24.00;99.90;;;;;;6320270;22;20243;-80
2023/07/22 11:19:36;;;;;;;10.73;10.43;;;24.20;99.90;;;;;;6318675;22;20197;-79
2023/07/22 11:22:06;;;;;;;10.73;10.43;;;24.30;99.90;;;;;;6319941;22;20211;-80
2023/07/22 11:24:35;;;;;;;10.60;10.30;;;24.20;99.90;;;;;;6320822;22;20283;-81
2023/07/22 11:27:05;;;;;;;10.77;10.48;;;24.30;99.90;;;;;;6321149;22;20193;-81
2023/07/22 11:29:33;;;;;;;10.52;10.23;;;24.30;99.90;;;;;;6324027;22;20204;-80
2023/07/22 11:32:00;;;;;;;10.57;10.27;;;24.40;99.90;;;;;;6319216;22;20224;-81
2023/07/22 11:34:27;;;;;;;10.65;10.35;;;24.40;99.90;;;;;;6320305;22;20193;-81
2023/07/22 11:36:57;;;;;;;10.50;10.20;;;24.40;99.90;;;;;;6321060;22;20204;-80
2023/07/22 11:39:31;;;;;;;10.30;10.00;;;24.00;99.90;;;;;;6319726;22;20197;-81
2023/07/22 11:42:02;;;;;;;10.50;10.20;;;23.80;99.90;;;;;;6321512;22;20196;-79
2023/07/22 11:44:30;;;;;;;10.40;10.10;;;23.90;99.90;;;;;;6323215;22;20189;-81
2023/07/22 11:46:59;;;;;;;10.50;10.20;;;24.00;99.90;;;;;;6324551;22;20199;-81
2023/07/22 11:49:28;;;;;;;10.70;10.40;;;24.00;99.90;;;;;;6320780;22;20243;-82
2023/07/22 11:51:57;;;;;;;10.45;10.15;;;24.10;99.90;;;;;;6320695;22;20208;-80
2023/07/22 11:54:27;;;;;;;10.57;10.27;;;24.20;99.90;;;;;;6318935;22;20203;-80
2023/07/22 11:56:54;;;;;;;10.55;10.25;;;24.40;99.90;;;;;;6318376;22;20284;-79
2023/07/22 11:59:35;;;;;;;10.90;10.60;;;24.70;99.90;;;;;;6317190;22;20209;-77
2023/07/22 12:02:05;;;;;;;10.68;10.38;;;24.70;99.90;;;;;;6314898;22;20193;-78
2023/07/22 12:04:32;;;;;;;10.70;10.40;;;24.50;99.90;;;;;;6315481;22;20197;-78
2023/07/22 12:06:59;;;;;;;10.70;10.40;;;24.50;99.90;;;;;;6314099;22;20210;-78
2023/07/22 12:09:28;;;;;;;10.43;10.13;;;24.60;99.90;;;;;;6314818;22;20209;-78
2023/07/22 12:11:59;;;;;;;10.55;10.25;;;25.20;99.90;;;;;;6316601;22;20193;-78
2023/07/22 12:14:34;;;;;;;10.80;10.50;;;26.00;99.90;;;;;;6318104;22;20228;-79
2023/07/22 12:17:01;;;;;;;10.70;10.40;;;26.70;99.90;;;;;;6321043;22;20268;-78
2023/07/22 12:19:29;;;;;;;11.00;10.70;;;27.00;99.90;;;;;;6318904;22;20193;-79
2023/07/22 12:21:56;;;;;;;11.00;10.70;;;26.90;99.90;;;;;;6314874;22;20193;-78
2023/07/22 12:24:23;;;;;;;10.75;10.45;;;26.20;99.90;;;;;;6314536;22;20212;-79
2023/07/22 12:26:51;;;;;;;10.55;10.25;;;26.10;99.90;;;;;;6315282;22;20193;-79
2023/07/22 12:29:18;;;;;;;10.70;10.40;;;25.90;99.90;;;;;;6314281;22;20200;-78
2023/07/22 12:31:45;;;;;;;10.57;10.27;;;25.30;99.90;;;;;;6314111;22;20193;-78
2023/07/22 12:34:12;;;;;;;10.60;10.30;;;25.30;99.90;;;;;;6314366;22;20193;-78
2023/07/22 12:36:39;;;;;;;10.50;10.20;;;25.70;99.90;;;;;;6315980;22;20216;-78
2023/07/22 12:39:06;;;;;;;10.60;10.30;;;26.20;99.90;;;;;;6314542;22;20200;-79
2023/07/22 12:41:33;;;;;;;10.40;10.10;;;26.90;99.90;;;;;;6327068;22;20200;-78
2023/07/22 12:44:02;;;;;;;10.60;10.30;;;27.20;99.90;;;;;;6319669;22;20293;-78
2023/07/22 12:46:29;;;;;;;10.60;10.30;;;27.30;99.90;;;;;;6319041;22;20199;-79
2023/07/22 12:48:56;;;;;;;10.68;10.38;;;27.40;99.90;;;;;;6315702;22;20272;-78
2023/07/22 12:51:23;;;;;;;10.52;10.23;;;27.30;99.90;;;;;;6314543;22;20260;-79
2023/07/22 12:53:50;;;;;;;10.65;10.35;;;27.30;99.90;;;;;;6316149;22;20225;-78
2023/07/22 12:56:17;;;;;;;10.35;10.05;;;27.40;99.90;;;;;;6317002;22;20205;-79
2023/07/22 12:58:44;;;;;;;10.50;10.20;;;27.40;99.90;;;;;;6315839;22;20243;-78
2023/07/22 13:01:13;;;;;;;10.45;10.15;;;27.30;99.90;;;;;;6315024;22;20214;-79
2023/07/22 13:03:40;;;;;;;10.35;10.05;;;27.00;99.90;;;;;;6315859;22;20200;-78
2023/07/22 13:06:07;;;;;;;10.60;10.30;;;27.40;99.90;;;;;;6315838;22;20247;-78
2023/07/22 13:08:34;;;;;;;10.82;10.52;;;27.80;99.90;;;;;;6315669;22;20254;-79
2023/07/22 13:11:01;;;;;;;10.60;10.30;;;28.20;99.90;;;;;;6315894;22;20774;-78
2023/07/22 13:13:28;;;;;;;10.88;10.57;;;28.60;99.90;;;;;;6315186;22;20246;-79
2023/07/22 13:15:55;;;;;;;10.70;10.40;;;28.80;99.90;;;;;;6315256;22;20770;-79
2023/07/22 13:18:24;;;;;;;10.70;10.40;;;28.50;99.90;;;;;;6315275;22;20211;-79
2023/07/22 13:20:51;;;;;;;10.88;10.57;;;28.10;99.90;;;;;;6315441;22;20200;-80
2023/07/22 13:23:18;;;;;;;10.77;10.48;;;27.80;99.90;;;;;;6315114;22;20224;-78
2023/07/22 13:25:45;;;;;;;10.73;10.43;;;27.30;99.90;;;;;;6315871;22;20731;-79
2023/07/22 13:28:12;;;;;;;10.70;10.40;;;27.00;99.90;;;;;;6315619;22;20237;-79
2023/07/22 13:30:39;;;;;;;10.55;10.25;;;27.20;99.90;;;;;;6314961;22;20220;-79
2023/07/22 13:33:06;;;;;;;10.48;10.18;;;27.50;99.90;;;;;;6315587;22;20211;-79
2023/07/22 13:35:34;;;;;;;10.68;10.38;;;27.60;99.90;;;;;;6324015;22;20224;-78
2023/07/22 13:38:01;;;;;;;10.60;10.30;;;27.30;99.90;;;;;;6315216;22;20216;-78
2023/07/22 13:40:28;;;;;;;10.65;10.35;;;27.30;99.90;;;;;;6315276;22;20193;-78
2023/07/22 13:42:55;;;;;;;10.60;10.30;;;27.10;99.90;;;;;;6314797;22;20205;-78
2023/07/22 13:45:22;;;;;;;10.57;10.27;;;26.80;99.90;;;;;;6316693;22;20240;-78
2023/07/22 13:47:49;;;;;;;10.73;10.43;;;26.60;99.90;;;;;;6316568;22;20296;-78
2023/07/22 13:50:17;;;;;;;10.48;10.18;;;26.40;99.90;;;;;;6315574;22;20203;-78
2023/07/22 13:52:45;;;;;;;10.70;10.40;;;26.10;99.90;;;;;;6314556;22;20249;-78
2023/07/22 13:55:12;;;;;;;10.80;10.50;;;25.70;99.90;;;;;;6316032;22;20287;-78
2023/07/22 13:57:39;;;;;;;10.75;10.45;;;25.50;99.90;;;;;;6315966;22;20200;-78
2023/07/22 14:00:10;;;;;;;10.90;10.60;;;25.50;99.90;;;;;;6316169;22;20232;-78
2023/07/22 14:02:38;;;;;;;10.63;10.32;;;25.50;99.90;;;;;;6316250;22;20259;-78
2023/07/22 14:05:06;;;;;;;10.77;10.48;;;25.70;99.90;;;;;;6314664;22;20287;-78
2023/07/22 14:07:33;;;;;;;10.93;10.63;;;26.00;99.90;;;;;;6315375;22;20201;-78
2023/07/22 14:10:01;;;;;;;10.68;10.38;;;26.20;99.90;;;;;;6315102;22;20300;-78
2023/07/22 14:12:30;;;;;;;10.85;10.55;;;26.10;99.90;;;;;;6314428;22;20205;-79
2023/07/22 14:14:57;;;;;;;10.80;10.50;;;26.00;99.90;;;;;;6315127;22;20201;-79
2023/07/22 14:17:25;;;;;;;10.98;10.68;;;26.00;99.90;;;;;;6314789;22;20201;-79
2023/07/22 14:19:52;;;;;;;10.82;10.52;;;25.90;99.90;;;;;;6314427;22;20208;-79
2023/07/22 14:22:19;;;;;;;10.73;10.43;;;26.00;99.90;;;;;;6314438;22;20207;-79
2023/07/22 14:24:46;;;;;;;10.98;10.68;;;26.10;99.90;;;;;;6315033;22;20212;-78
2023/07/22 14:27:14;;;;;;;10.80;10.50;;;26.00;99.90;;;;;;6317848;22;20219;-78
2023/07/22 14:29:41;;;;;;;10.82;10.52;;;26.30;99.90;;;;;;6319810;22;20259;-79
2023/07/22 14:32:09;;;;;;;10.90;10.60;;;27.00;99.90;;;;;;6315379;22;20224;-79
2023/07/22 14:34:36;;;;;;;11.02;10.73;;;27.70;99.90;;;;;;6315257;22;20208;-78
2023/07/22 14:37:04;;;;;;;10.85;10.55;;;28.20;99.90;;;;;;6315001;22;20205;-79
2023/07/22 14:39:31;;;;;;;11.00;10.70;;;28.80;99.90;;;;;;6315283;22;20224;-78
2023/07/22 14:41:58;;;;;;;11.00;10.70;;;29.20;99.90;;;;;;6316041;22;20205;-79
2023/07/22 14:44:27;;;;;;;10.70;10.40;;;28.90;99.90;;;;;;6314602;22;20245;-79
2023/07/22 14:46:54;;;;;;;10.90;10.60;;;29.00;99.90;;;;;;6315175;22;20727;-79
2023/07/22 14:49:21;;;;;;;11.00;10.70;;;29.00;99.90;;;;;;6314834;22;20280;-78
2023/07/22 14:51:48;;;;;;;10.75;10.45;;;28.90;99.90;;;;;;6322886;22;20262;-79
2023/07/22 14:54:15;;;;;;;10.77;10.48;;;28.70;99.90;;;;;;6318172;22;20200;-79
2023/07/22 14:56:42;;;;;;;10.60;10.30;;;28.70;99.90;;;;;;6315853;22;20201;-78
2023/07/22 15:02:07;;;;;;;11.00;10.70;;;29.20;99.90;;;;;;6313765;22;20192;-89
2023/07/22 15:05:00;;;;;;;10.98;10.68;;;29.20;99.90;;;;;;6317691;22;20196;-89
2023/07/22 15:07:48;;;;;;;10.90;10.60;;;29.40;99.90;;;;;;6323785;22;20245;-88
2023/07/22 15:10:41;;;;;;;;;;;;;;;;;;;;;
2023/07/22 15:13:21;;;;;;;10.70;10.40;;;29.00;99.90;;;;;;6334835;22;20245;-89
2023/07/22 15:16:23;;;;;;;10.85;10.55;;;28.80;99.90;;;;;;6328688;22;20215;-89
2023/07/22 15:19:10;;;;;;;10.75;10.45;;;28.50;99.90;;;;;;6324896;22;20243;-89
2023/07/22 15:22:02;;;;;;;11.07;10.77;;;28.30;99.90;;;;;;6319390;22;20188;-89
2023/07/22 15:25:01;;;;;;;10.80;10.50;;;27.80;99.90;;;;;;6319268;22;20237;-89
2023/07/22 15:27:34;;;;;;;10.70;10.40;;;27.80;99.90;;;;;;6318085;22;20189;-89
2023/07/22 15:30:34;;;;;;;10.82;10.52;;;27.70;99.90;;;;;;6317898;22;20251;-88
2023/07/22 15:33:22;;;;;;;;;;;;;;;;;;;;;
2023/07/22 15:35:57;;;;;;;11.15;10.85;;;27.40;99.90;;;;;;6318580;22;20173;-90
2023/07/22 15:39:09;;;;;;;;;;;;;;;;;;;;;
2023/07/22 15:41:46;;;;;;;10.95;10.65;;;27.10;99.90;;;;;;6322361;22;20196;-89
2023/07/22 15:44:39;;;;;;;11.10;10.80;;;27.20;99.90;;;;;;6324069;22;20200;-89
2023/07/22 15:47:15;;;;;;;11.00;10.70;;;27.40;99.90;;;;;;6318571;22;20207;-88
2023/07/22 15:49:47;;;;;;;10.75;10.45;;;27.30;99.90;;;;;;6317745;22;20200;-89
2023/07/22 15:55:04;;;;;;;10.70;10.40;;;27.10;99.90;;;;;;6315183;22;20200;-89
2023/07/22 15:57:49;;;;;;;;;;;;;;;;;;;;;
2023/07/22 16:00:22;;;;;;;10.90;10.60;;;27.40;99.90;;;;;;6317154;22;20204;-89
2023/07/22 16:03:05;;;;;;;11.10;10.80;;;28.10;99.90;;;;;;6317277;22;20243;-89
2023/07/22 16:05:43;;;;;;;11.13;10.82;;;28.50;99.90;;;;;;6320602;22;20205;-89
2023/07/22 16:08:28;;;;;;;11.38;11.07;;;28.80;99.90;;;;;;6319803;22;20275;-90
2023/07/22 16:11:12;;;;;;;11.20;10.90;;;29.00;99.90;;;;;;6318178;22;20197;-89
2023/07/22 16:13:59;;;;;;;11.10;10.80;;;29.00;99.90;;;;;;6317596;22;20197;-89
2023/07/22 16:16:53;;;;;;;11.15;10.85;;;29.20;99.90;;;;;;6316413;22;20193;-89
2023/07/22 16:19:26;;;;;;;10.85;10.55;;;29.40;99.90;;;;;;6315798;22;20197;-89
2023/07/22 16:22:10;;;;;;;10.85;10.55;;;29.70;99.90;;;;;;6315901;22;20200;-88
2023/07/22 16:24:55;;;;;;;10.88;10.57;;;30.00;99.90;;;;;;6313975;22;20261;-88
2023/07/22 16:27:26;;;;;;;10.80;10.50;;;30.20;99.90;;;;;;6316466;22;20309;-88
2023/07/22 16:36:56;;;;;;;10.70;10.40;;;29.80;99.90;;;;;;6311732;22;20231;-88
2023/07/22 16:39:45;;;;;;;10.60;10.30;;;29.60;99.90;;;;;;6315469;22;20196;-88
2023/07/22 16:42:25;;;;;;;10.55;10.25;;;29.30;99.90;;;;;;6316361;22;20197;-88
2023/07/22 16:45:29;;;;;;;10.73;10.43;;;28.60;99.90;;;;;;6318137;22;20185;-88
2023/07/22 16:48:45;;;;;;;;;;;;;;;;;;;;;
2023/07/22 16:51:49;;;;;;;;;;;;;;;;;;;;;
2023/07/22 16:54:40;;;;;;;10.38;10.07;;;28.00;99.90;;;;;;6133555;23;20419;-88
2023/07/22 16:57:28;;;;;;;10.35;10.05;;;27.90;99.90;;;;;;6321989;22;20189;-88
2023/07/22 17:00:30;;;;;;;10.40;10.10;;;27.90;99.90;;;;;;6325640;22;20208;-87
2023/07/22 17:03:00;;;;;;;10.70;10.40;;;27.90;99.90;;;;;;6317490;22;20223;-89
2023/07/22 17:05:31;;;;;;;10.82;10.52;;;28.00;99.90;;;;;;6316827;22;20636;-89
2023/07/22 17:08:23;;;;;;;10.63;10.32;;;28.20;99.90;;;;;;6316034;22;20197;-89
2023/07/22 17:11:16;;;;;;;10.65;10.35;;;28.40;99.90;;;;;;6315355;22;20208;-89
2023/07/22 17:14:12;;;;;;;;;;;;;;;;;;;;;
2023/07/22 17:26:36;;;;;;;10.30;10.00;;;29.20;99.90;;;;;;6317396;22;20209;-89
2023/07/22 17:29:32;;;;;;;10.40;10.10;;;29.10;99.90;;;;;;6316238;22;20208;-88
2023/07/22 17:35:22;;;;;;;10.50;10.20;;;28.60;99.90;;;;;;6308592;22;20278;-89
2023/07/22 17:41:48;;;;;;;10.75;10.45;;;27.60;99.90;;;;;;6272989;22;20209;-89
2023/07/22 17:44:56;;;;;;;;;;;;;;;;;;;;;
2023/07/22 17:47:55;;;;;;;10.32;10.02;;;26.90;99.90;;;;;;6317843;22;20192;-89
2023/07/22 17:54:32;;;;;;;;;;;;;;;;;;;;;
2023/07/22 17:57:28;;;;;;;10.30;10.00;;;27.30;99.90;;;;;;6193373;23;20226;-88
2023/07/22 18:00:09;;;;;;;10.30;10.00;;;27.40;99.90;;;;;;6310577;22;20231;-88
2023/07/22 18:02:44;;;;;;;10.48;10.18;;;27.20;99.90;;;;;;6317799;22;20250;-89
2023/07/22 18:05:19;;;;;;;10.32;10.02;;;27.20;99.90;;;;;;6317738;22;20232;-89
2023/07/22 18:08:13;;;;;;;10.40;10.10;;;27.00;99.90;;;;;;6318263;22;20184;-89
2023/07/22 18:10:58;;;;;;;10.55;10.25;;;26.90;99.90;;;;;;6318284;22;20196;-89
2023/07/22 18:13:50;;;;;;;;;;;;;;;;;;;;;
2023/07/22 18:16:21;;;;;;;10.40;10.10;;;26.70;99.90;;;;;;6317319;22;20197;-89
2023/07/22 18:24:50;;;;;;;10.40;10.10;;;26.60;99.90;;;;;;6298778;22;20267;-90
2023/07/22 18:28:04;;;;;;;10.35;10.05;;;26.50;99.90;;;;;;6320236;22;20193;-89
2023/07/22 18:30:42;;;;;;;10.32;10.02;;;26.30;99.90;;;;;;6304306;22;20193;-90
2023/07/22 18:33:26;;;;;;;10.38;10.07;;;26.00;99.90;;;;;;6321094;22;20193;-90
2023/07/22 18:36:11;;;;;;;;;;;;;;;;;;;;;
2023/07/22 18:38:45;;;;;;;10.30;10.00;;;25.60;99.90;;;;;;6291223;22;20204;-90